Aérodrome :
LOGIN :

S'inscrire | Disclaimer

   EN    FR    IT 

 










Légende :    VFR   VFR Marginal   IFR   IFR Intensif   IFR Très Intensif
Visi : 
Plafond : 
>= 8 km
>= 3000ft
5 à 8 km
1000 à 3000 ft
1500m à 5 km
500 à 1000 ft
800 à 1500m
200 à 500 ft
< 800m
< 200 ft
Symboles :   Orages  Brouillard  Fortes neiges  Fortes précipitations  Vent > 20 kt
SIGMETs :   Divers  Orages  Givrage  Turbulence  Onde Orograph.  Cendres Volcan.







- Altitude de l'aérodrome : 1367 ft
- Code IATA : FDH


EDNY - Friedrichshafen

DERNIER METAR :
  • 240420Z VRB02KT CAVOK 15/15 Q1018

METARs EXPIRÉS :
  • 240350Z 05002KT CAVOK 15/15 Q1018
  • 240335Z AUTO 06002KT 5000 2400/ BR FEW069 15/15 Q1018
  • 240320Z AUTO 07002KT 3400 0700/ R24/P2000N BR FEW066 15/15 Q1018
  • 240309Z AUTO 00000KT 5000 0750/ R24/P2000N BR FEW067 16/15 Q1018
  • 240250Z AUTO 00000KT 9999 16/15 Q1018
  • 240220Z AUTO 00000KT 9999 16/15 Q1017
  • 240150Z AUTO 10001KT 9999 FEW061 16/16 Q1017

TAF TAF EDNY
Valide du 24 à 00h jusqu'au 25 à 00h UTC


232300Z 2400/2424 VRB03KT CAVOK
PROB30
TEMPO 2401/2406 3000 BCFG
BECMG 2408/2410 24005KT
PROB30
TEMPO 2415/2418 26020G30KT TSRA BKN040CB
BECMG 2418/2420 VRB03KT
Pas de NOTAMs connus pour ce terrain.



MET'MAP, la Météo Aéronautique d'un coup d'oeil ! - Copyright ORBIFLY Décembre 2007 - Disclaimer

ORBIFLY MET'MAP TEAM :

Programmation & Développement : Alexandra Zaïnal
Conception & Développement : Baudouin d'Aumeries
Co-Programmation & Développement : Marc-Olivier Méhu
Soutien technique & logistique : Manuel Goepfert

Contact : metmap@orbifly.com




SOURCES & CREDITS :

   NOAA